Time;durP1;ratioP1;P1;durP2;ratioP2;P2;SDS_P1;SDS_P2;PMS_P1;PMS_P2;Temp;Humidity;BMP_temperature;BMP_pressure;BME280_temperature;BME280_humidity;BME280_pressure;Samples;Min_cycle;Max_cycle;Signal;HPM_P1;HPM_P2
2023/11/29 00:00:43;;;;;;;1.50;1.40;;;11.40;95.30;;;;;;5014075;28;20156;-45
2023/11/29 00:03:08;;;;;;;2.75;1.73;;;11.30;95.20;;;;;;5015076;28;20130;-45
2023/11/29 00:05:36;;;;;;;3.75;1.80;;;11.30;95.20;;;;;;5014660;28;20550;-46
2023/11/29 00:08:04;;;;;;;2.17;1.55;;;11.30;95.40;;;;;;5014167;28;20060;-46
2023/11/29 00:10:30;;;;;;;2.05;1.52;;;11.30;95.30;;;;;;5013637;28;20049;-45
2023/11/29 00:12:56;;;;;;;3.45;1.83;;;11.30;95.30;;;;;;5013638;28;20018;-45
2023/11/29 00:15:23;;;;;;;1.77;1.45;;;11.30;95.30;;;;;;5013874;28;20353;-45
2023/11/29 00:17:49;;;;;;;2.03;1.58;;;11.30;95.30;;;;;;5014240;28;20042;-46
2023/11/29 00:20:16;;;;;;;1.52;1.20;;;11.30;95.30;;;;;;5014234;28;20040;-44
2023/11/29 00:22:41;;;;;;;1.83;1.48;;;11.30;95.30;;;;;;5014045;28;20391;-45
2023/11/29 00:25:08;;;;;;;2.75;1.73;;;11.30;95.30;;;;;;5014789;28;20022;-44
2023/11/29 00:27:34;;;;;;;2.28;1.40;;;11.30;95.40;;;;;;5013959;28;20083;-43
2023/11/29 00:30:00;;;;;;;2.40;1.50;;;11.30;95.40;;;;;;5013209;28;20423;-41
2023/11/29 00:32:25;;;;;;;2.53;1.50;;;11.20;95.30;;;;;;5013264;28;20026;-46
2023/11/29 00:34:51;;;;;;;1.98;1.63;;;11.20;95.30;;;;;;5013124;28;20120;-45
2023/11/29 00:37:17;;;;;;;2.05;1.60;;;11.30;95.40;;;;;;5012927;28;20116;-44
2023/11/29 00:39:42;;;;;;;2.60;1.50;;;11.20;95.40;;;;;;5013910;28;20030;-46
2023/11/29 00:42:08;;;;;;;2.15;1.55;;;11.20;95.40;;;;;;5013156;28;20476;-41
2023/11/29 00:44:33;;;;;;;1.50;1.40;;;11.20;95.40;;;;;;5013006;28;20038;-45
2023/11/29 00:46:59;;;;;;;2.53;1.55;;;11.20;95.40;;;;;;5012760;28;20095;-45
2023/11/29 00:49:25;;;;;;;2.30;1.50;;;11.20;95.40;;;;;;5012688;28;20034;-44
2023/11/29 00:51:50;;;;;;;3.00;1.80;;;11.20;95.40;;;;;;5012818;28;20029;-46
2023/11/29 00:54:16;;;;;;;2.10;1.55;;;11.20;95.40;;;;;;5012803;28;20096;-43
2023/11/29 00:56:42;;;;;;;2.45;1.83;;;11.20;95.40;;;;;;5013411;28;20057;-45
2023/11/29 00:59:07;;;;;;;3.15;1.90;;;11.20;95.40;;;;;;5013624;28;20096;-46
2023/11/29 01:01:33;;;;;;;2.33;1.65;;;11.20;95.40;;;;;;5014027;28;20022;-39
2023/11/29 01:04:03;;;;;;;2.03;1.60;;;11.20;95.40;;;;;;5012635;28;20041;-45
2023/11/29 01:06:29;;;;;;;1.95;1.48;;;11.20;95.40;;;;;;5011755;28;20116;-45
2023/11/29 01:08:54;;;;;;;1.85;1.35;;;11.20;95.40;;;;;;5012782;28;20033;-45
2023/11/29 01:11:20;;;;;;;1.83;1.30;;;11.20;95.50;;;;;;5013166;28;20030;-45
2023/11/29 01:13:46;;;;;;;2.42;1.60;;;11.10;95.40;;;;;;5012493;28;20141;-44
2023/11/29 01:16:12;;;;;;;2.20;1.60;;;11.10;95.40;;;;;;5012796;28;20117;-45
2023/11/29 01:18:41;;;;;;;2.03;1.58;;;11.10;95.40;;;;;;5012855;28;20135;-45
2023/11/29 01:21:11;;;;;;;2.10;1.52;;;11.10;95.40;;;;;;5012360;28;20037;-43
2023/11/29 01:23:37;;;;;;;4.05;1.90;;;11.10;95.70;;;;;;5012268;28;20029;-44
2023/11/29 01:26:02;;;;;;;1.80;1.60;;;11.10;95.40;;;;;;5012598;28;20088;-45
2023/11/29 01:28:28;;;;;;;1.55;1.40;;;11.10;95.40;;;;;;5012868;28;20093;-45
2023/11/29 01:30:53;;;;;;;2.10;1.50;;;11.10;95.40;;;;;;5013103;28;20069;-45
2023/11/29 01:33:19;;;;;;;1.75;1.45;;;11.10;95.50;;;;;;5012096;28;20026;-45
2023/11/29 01:35:44;;;;;;;2.08;1.60;;;11.10;95.40;;;;;;5012047;28;20053;-45
2023/11/29 01:38:10;;;;;;;2.15;1.50;;;11.10;95.80;;;;;;5012539;28;20076;-40
2023/11/29 01:40:36;;;;;;;1.70;1.27;;;11.10;95.40;;;;;;5014091;28;20032;-45
2023/11/29 01:43:01;;;;;;;2.35;1.30;;;11.10;95.40;;;;;;5013372;28;20060;-40
2023/11/29 01:45:27;;;;;;;2.15;1.30;;;11.10;95.40;;;;;;5013103;28;20083;-46
2023/11/29 01:47:54;;;;;;;1.50;1.27;;;11.10;95.40;;;;;;5012891;28;20057;-45
2023/11/29 01:50:23;;;;;;;1.83;1.40;;;11.10;95.40;;;;;;5011966;28;20026;-45
2023/11/29 01:52:49;;;;;;;1.38;1.23;;;11.00;95.40;;;;;;5011885;28;20022;-45
2023/11/29 01:55:18;;;;;;;1.98;1.40;;;11.10;95.40;;;;;;5012992;28;20036;-47
2023/11/29 01:57:44;;;;;;;1.85;1.27;;;11.00;95.40;;;;;;5011921;28;20030;-44
2023/11/29 02:00:11;;;;;;;2.00;1.73;;;11.00;95.40;;;;;;5011733;28;20427;-44
2023/11/29 02:02:37;;;;;;;3.25;1.83;;;11.00;95.30;;;;;;5012240;28;20306;-44
2023/11/29 02:05:04;;;;;;;3.45;2.28;;;11.00;95.30;;;;;;5011635;28;20029;-44
2023/11/29 02:07:29;;;;;;;3.47;2.10;;;11.00;95.40;;;;;;5011408;28;20026;-45
2023/11/29 02:09:55;;;;;;;3.30;2.30;;;11.00;95.30;;;;;;5011485;28;20026;-45
2023/11/29 02:12:21;;;;;;;3.03;2.00;;;11.00;95.30;;;;;;5011669;28;20061;-45
2023/11/29 02:14:47;;;;;;;2.60;1.95;;;11.00;95.30;;;;;;5011579;28;20075;-46
2023/11/29 02:17:12;;;;;;;3.65;2.15;;;11.00;95.30;;;;;;5011661;28;20104;-45
2023/11/29 02:19:38;;;;;;;4.10;2.20;;;11.00;95.30;;;;;;5012837;28;20546;-45
2023/11/29 02:22:04;;;;;;;2.42;1.75;;;11.00;95.30;;;;;;5011562;28;20086;-44
2023/11/29 02:24:40;;;;;;;2.45;1.98;;;11.00;95.30;;;;;;5012191;28;20232;-45
2023/11/29 02:27:06;;;;;;;3.30;2.20;;;11.00;95.20;;;;;;5011303;28;20069;-45
2023/11/29 02:29:31;;;;;;;2.80;2.10;;;11.00;95.30;;;;;;5011600;28;20565;-45
2023/11/29 02:31:57;;;;;;;2.10;1.85;;;11.00;95.30;;;;;;5012610;28;20388;-44
2023/11/29 02:34:23;;;;;;;3.17;2.10;;;10.90;95.20;;;;;;5012595;28;20499;-45
2023/11/29 02:36:48;;;;;;;3.22;1.98;;;11.00;95.30;;;;;;5011410;28;20030;-45
2023/11/29 02:39:14;;;;;;;2.20;1.80;;;11.00;95.20;;;;;;5012053;28;20034;-43
2023/11/29 02:41:39;;;;;;;1.85;1.52;;;10.90;95.20;;;;;;5011944;28;20496;-45
2023/11/29 02:44:05;;;;;;;2.70;1.98;;;11.00;95.20;;;;;;5012582;28;20030;-44
2023/11/29 02:46:31;;;;;;;2.42;1.80;;;10.90;95.20;;;;;;5011417;28;20080;-44
2023/11/29 02:48:57;;;;;;;2.75;2.08;;;10.90;95.20;;;;;;5011029;28;20030;-44
2023/11/29 02:51:23;;;;;;;3.80;1.85;;;10.90;95.20;;;;;;5011445;28;20032;-45
2023/11/29 02:53:49;;;;;;;3.05;1.65;;;10.90;95.20;;;;;;5012403;28;20518;-45
2023/11/29 02:56:15;;;;;;;2.70;1.33;;;10.90;95.20;;;;;;5011112;28;20053;-45
2023/11/29 02:58:40;;;;;;;2.10;1.70;;;10.90;95.20;;;;;;5011434;28;20152;-45
2023/11/29 03:01:06;;;;;;;3.00;2.10;;;10.90;95.20;;;;;;5011987;28;20034;-44
2023/11/29 03:03:32;;;;;;;2.72;2.03;;;10.90;95.20;;;;;;5011126;28;20073;-45
2023/11/29 03:05:57;;;;;;;3.17;1.88;;;10.90;95.20;;;;;;5011046;28;20040;-45
2023/11/29 03:08:23;;;;;;;2.28;1.50;;;10.90;95.20;;;;;;5010898;28;20480;-42
2023/11/29 03:10:49;;;;;;;2.22;1.67;;;10.90;95.20;;;;;;5012073;28;20046;-46
2023/11/29 03:13:15;;;;;;;2.40;1.60;;;10.90;95.20;;;;;;5011668;28;20077;-45
2023/11/29 03:15:41;;;;;;;3.00;2.08;;;10.90;95.20;;;;;;5011270;28;20515;-45
2023/11/29 03:18:07;;;;;;;1.77;1.50;;;10.90;95.10;;;;;;5011357;28;20105;-42
2023/11/29 03:20:32;;;;;;;3.42;1.55;;;10.90;95.10;;;;;;5011570;28;20045;-45
2023/11/29 03:22:58;;;;;;;1.80;1.40;;;10.90;95.10;;;;;;5011413;28;20396;-39
2023/11/29 03:25:23;;;;;;;2.33;1.77;;;10.90;95.10;;;;;;5010800;28;20361;-45
2023/11/29 03:27:49;;;;;;;2.45;1.63;;;10.90;95.10;;;;;;5009528;28;20022;-45
2023/11/29 03:30:14;;;;;;;1.90;1.50;;;10.90;95.10;;;;;;5012643;28;20567;-44
2023/11/29 03:32:40;;;;;;;2.05;1.58;;;10.90;95.10;;;;;;5014543;28;20076;-42
2023/11/29 03:35:06;;;;;;;2.40;1.80;;;10.90;95.10;;;;;;5014715;28;20072;-45
2023/11/29 03:37:32;;;;;;;1.77;1.50;;;10.90;95.10;;;;;;5015077;28;20072;-45
2023/11/29 03:39:57;;;;;;;1.85;1.45;;;10.90;95.10;;;;;;5014773;28;20381;-46
2023/11/29 03:42:23;;;;;;;2.45;1.58;;;10.90;95.10;;;;;;5014774;28;20060;-45
2023/11/29 03:44:49;;;;;;;3.78;1.48;;;10.80;95.10;;;;;;5015124;28;20034;-45
2023/11/29 03:47:14;;;;;;;2.10;1.70;;;10.80;95.40;;;;;;5014143;28;20057;-45
2023/11/29 03:49:40;;;;;;;1.65;1.40;;;10.80;95.10;;;;;;5013975;28;20060;-42
2023/11/29 03:52:05;;;;;;;2.25;1.45;;;10.80;95.10;;;;;;5014359;28;20029;-41
2023/11/29 03:54:31;;;;;;;1.98;1.52;;;10.80;95.10;;;;;;5014760;28;20045;-45
2023/11/29 03:56:57;;;;;;;1.58;1.30;;;10.80;95.40;;;;;;5014351;28;20097;-45
2023/11/29 03:59:22;;;;;;;1.50;1.40;;;10.80;95.00;;;;;;5014296;28;20044;-46
2023/11/29 04:01:48;;;;;;;1.80;1.33;;;10.80;95.10;;;;;;5014623;28;20026;-41
2023/11/29 04:04:13;;;;;;;2.08;1.70;;;10.80;95.00;;;;;;5014211;28;20301;-45
2023/11/29 04:06:39;;;;;;;2.08;1.50;;;10.80;95.00;;;;;;5013818;28;20053;-42
2023/11/29 04:09:05;;;;;;;2.22;1.48;;;10.80;95.10;;;;;;5013716;28;20124;-45
2023/11/29 04:11:30;;;;;;;2.08;1.50;;;10.80;95.00;;;;;;5014857;28;20034;-43
2023/11/29 04:13:56;;;;;;;1.73;1.50;;;10.80;95.00;;;;;;5013582;28;20080;-40
2023/11/29 04:16:24;;;;;;;2.35;1.70;;;10.80;95.00;;;;;;5013569;28;20026;-45
2023/11/29 04:18:51;;;;;;;2.47;1.40;;;10.80;95.00;;;;;;5013853;28;20022;-45
2023/11/29 04:21:29;;;;;;;1.40;1.30;;;10.80;95.00;;;;;;5013618;28;20034;-40
2023/11/29 04:23:55;;;;;;;2.00;1.52;;;10.80;95.00;;;;;;5013375;28;20454;-45
2023/11/29 04:26:32;;;;;;;1.40;1.30;;;10.80;95.00;;;;;;5013647;28;20038;-42
2023/11/29 04:28:59;;;;;;;1.55;1.30;;;10.80;95.00;;;;;;5013323;28;20516;-46
2023/11/29 04:31:25;;;;;;;1.50;1.30;;;10.80;95.00;;;;;;5013767;28;20105;-44
2023/11/29 04:33:51;;;;;;;1.88;1.27;;;10.80;95.00;;;;;;5013681;28;20018;-44
2023/11/29 04:36:17;;;;;;;3.10;1.17;;;10.80;95.00;;;;;;5014484;28;20415;-45
2023/11/29 04:38:44;;;;;;;1.42;1.30;;;10.80;95.00;;;;;;5013741;28;20514;-45
2023/11/29 04:41:10;;;;;;;2.03;1.55;;;10.80;95.00;;;;;;5012208;28;20038;-43
2023/11/29 04:43:35;;;;;;;2.10;1.50;;;10.80;95.00;;;;;;5013235;28;20037;-44
2023/11/29 04:46:02;;;;;;;2.45;1.60;;;10.80;95.00;;;;;;5013876;28;20084;-43
2023/11/29 04:48:28;;;;;;;1.80;1.48;;;10.80;95.00;;;;;;5012636;28;20049;-45
2023/11/29 04:50:53;;;;;;;1.45;1.10;;;10.80;95.00;;;;;;5012581;28;20045;-44
2023/11/29 04:53:19;;;;;;;2.08;1.60;;;10.70;95.00;;;;;;5014045;28;20041;-43
2023/11/29 04:55:46;;;;;;;1.65;1.40;;;10.70;95.00;;;;;;5014196;28;20025;-45
2023/11/29 04:58:13;;;;;;;2.03;1.58;;;10.70;95.00;;;;;;5014096;28;20026;-42
2023/11/29 05:00:38;;;;;;;1.40;1.15;;;10.70;95.00;;;;;;5013943;28;20022;-45
2023/11/29 05:03:04;;;;;;;1.65;1.40;;;10.70;95.00;;;;;;5013646;28;20033;-46
2023/11/29 05:05:30;;;;;;;1.95;1.38;;;10.70;94.90;;;;;;5013201;28;20097;-45
2023/11/29 05:07:55;;;;;;;1.42;1.23;;;10.70;94.90;;;;;;5013452;28;20072;-42
2023/11/29 05:10:21;;;;;;;1.98;1.40;;;10.70;95.00;;;;;;5013191;28;20276;-43
2023/11/29 05:12:47;;;;;;;2.42;1.35;;;10.70;95.00;;;;;;5013466;28;20080;-41
2023/11/29 05:15:12;;;;;;;1.90;1.35;;;10.70;95.00;;;;;;5012675;28;20014;-45
2023/11/29 05:17:38;;;;;;;1.67;1.35;;;10.70;95.00;;;;;;5012288;28;20100;-41
2023/11/29 05:20:05;;;;;;;2.13;1.60;;;10.70;95.00;;;;;;5012243;28;20025;-42
2023/11/29 05:22:31;;;;;;;1.60;1.30;;;10.70;95.00;;;;;;5012554;28;20033;-39
2023/11/29 05:24:57;;;;;;;1.55;1.40;;;10.70;95.00;;;;;;5012331;28;20392;-40
2023/11/29 05:27:23;;;;;;;1.38;1.23;;;10.70;95.00;;;;;;5012597;28;20026;-42
2023/11/29 05:29:49;;;;;;;1.33;1.17;;;10.70;95.00;;;;;;5012363;28;20022;-42
2023/11/29 05:32:15;;;;;;;1.45;1.27;;;10.70;95.00;;;;;;5012392;28;20076;-41
2023/11/29 05:34:41;;;;;;;2.03;1.35;;;10.70;95.00;;;;;;5013253;28;20086;-37
2023/11/29 05:37:07;;;;;;;1.38;1.10;;;10.70;95.10;;;;;;5012644;28;20424;-42
2023/11/29 05:39:34;;;;;;;1.58;1.27;;;10.70;95.00;;;;;;5012103;28;20026;-38
2023/11/29 05:42:03;;;;;;;1.90;1.38;;;10.70;95.00;;;;;;5012355;28;20399;-42
2023/11/29 05:44:34;;;;;;;2.10;1.35;;;10.70;95.00;;;;;;5012771;28;20112;-42
2023/11/29 05:47:03;;;;;;;1.85;1.45;;;10.70;95.00;;;;;;5010284;28;20101;-41
2023/11/29 05:49:28;;;;;;;2.33;1.60;;;10.70;95.00;;;;;;5011746;28;20038;-42
2023/11/29 05:51:54;;;;;;;2.03;1.77;;;10.80;94.90;;;;;;5011676;28;20033;-43
2023/11/29 05:54:20;;;;;;;2.80;2.40;;;10.70;93.50;;;;;;5011751;28;20022;-45
2023/11/29 05:56:48;;;;;;;2.72;2.10;;;10.70;93.10;;;;;;5011785;28;20522;-45
2023/11/29 05:59:13;;;;;;;2.13;1.90;;;10.60;93.10;;;;;;5011592;28;20484;-45
2023/11/29 06:01:39;;;;;;;2.40;1.80;;;10.60;93.20;;;;;;5012132;28;20033;-46
2023/11/29 06:04:05;;;;;;;2.00;1.77;;;10.50;93.30;;;;;;5010319;28;20029;-45
2023/11/29 06:06:31;;;;;;;2.30;1.88;;;10.60;93.50;;;;;;5011586;28;20022;-45
2023/11/29 06:08:58;;;;;;;2.80;2.08;;;10.50;93.50;;;;;;5011426;28;20068;-45
2023/11/29 06:11:23;;;;;;;3.45;2.00;;;10.50;93.60;;;;;;5011722;28;20029;-45
2023/11/29 06:13:52;;;;;;;2.35;2.03;;;10.50;93.70;;;;;;5011616;28;20030;-45
2023/11/29 06:16:18;;;;;;;2.72;1.92;;;10.50;93.70;;;;;;5011367;28;20022;-45
2023/11/29 06:18:44;;;;;;;3.22;1.80;;;10.50;93.80;;;;;;5011325;28;20033;-45
2023/11/29 06:21:09;;;;;;;2.10;1.80;;;10.60;93.90;;;;;;5011547;28;20104;-45
2023/11/29 06:23:36;;;;;;;2.03;1.67;;;10.50;93.90;;;;;;5011541;28;20029;-45
2023/11/29 06:26:04;;;;;;;2.00;1.58;;;10.60;94.00;;;;;;5011858;28;20424;-45
2023/11/29 06:28:30;;;;;;;2.50;1.42;;;10.60;94.10;;;;;;5011251;28;20116;-45
2023/11/29 06:30:56;;;;;;;1.42;1.27;;;10.60;94.20;;;;;;5011363;28;20097;-45
2023/11/29 06:33:21;;;;;;;1.90;1.60;;;10.70;94.30;;;;;;5011721;28;20033;-45
2023/11/29 06:35:47;;;;;;;2.40;1.75;;;10.70;94.20;;;;;;5012046;28;20097;-45
2023/11/29 06:38:13;;;;;;;2.53;1.52;;;10.80;94.30;;;;;;5011402;28;20056;-45
2023/11/29 06:40:38;;;;;;;1.58;1.42;;;10.80;94.20;;;;;;5011304;28;20080;-45
2023/11/29 06:43:04;;;;;;;1.80;1.42;;;10.90;94.20;;;;;;5011248;28;20114;-45
2023/11/29 06:45:29;;;;;;;4.10;1.58;;;10.90;94.10;;;;;;5011113;28;20026;-45
2023/11/29 06:47:55;;;;;;;2.10;1.63;;;11.00;94.10;;;;;;5011095;28;20076;-45
2023/11/29 06:50:21;;;;;;;2.05;1.67;;;11.10;94.00;;;;;;5011232;28;20037;-45
2023/11/29 06:52:46;;;;;;;2.38;1.80;;;11.10;93.90;;;;;;5011248;28;20105;-45
2023/11/29 06:55:12;;;;;;;2.22;1.75;;;11.20;93.90;;;;;;5011510;28;20029;-45
2023/11/29 06:57:38;;;;;;;2.22;1.83;;;11.30;93.80;;;;;;5011793;28;20056;-45
2023/11/29 07:00:09;;;;;;;3.60;1.73;;;11.30;93.70;;;;;;5010995;28;20040;-45
2023/11/29 07:02:36;;;;;;;1.73;1.20;;;11.30;93.60;;;;;;5011094;28;20458;-45
2023/11/29 07:05:04;;;;;;;1.95;1.63;;;11.40;93.60;;;;;;5012739;28;20034;-45
2023/11/29 07:07:30;;;;;;;2.00;1.50;;;11.50;93.50;;;;;;5014698;28;20484;-45
2023/11/29 07:09:55;;;;;;;1.90;1.60;;;11.50;93.80;;;;;;5014679;28;20096;-45
2023/11/29 07:12:22;;;;;;;1.60;1.35;;;11.50;93.40;;;;;;5014610;28;20022;-45
2023/11/29 07:14:47;;;;;;;2.13;1.23;;;11.60;93.30;;;;;;5014723;28;20058;-45
2023/11/29 07:17:13;;;;;;;1.58;1.45;;;11.60;93.30;;;;;;5014467;28;20104;-45
2023/11/29 07:19:40;;;;;;;1.92;1.35;;;11.70;93.20;;;;;;5014558;28;20064;-44
2023/11/29 07:22:05;;;;;;;1.67;1.50;;;11.70;93.20;;;;;;5014593;28;20057;-45
2023/11/29 07:24:31;;;;;;;2.63;1.60;;;11.80;93.10;;;;;;5014538;28;20112;-44
2023/11/29 07:26:56;;;;;;;2.40;1.70;;;11.80;93.10;;;;;;5014309;28;20380;-44
2023/11/29 07:29:22;;;;;;;1.83;1.48;;;11.80;93.00;;;;;;5014663;28;20057;-41
2023/11/29 07:31:48;;;;;;;1.92;1.50;;;11.80;93.00;;;;;;5034160;28;20029;-43
2023/11/29 07:34:13;;;;;;;3.13;1.80;;;11.80;93.00;;;;;;5034165;28;20021;-46
2023/11/29 07:36:43;;;;;;;1.88;1.40;;;11.90;93.00;;;;;;5034188;28;20032;-44
2023/11/29 07:39:09;;;;;;;2.03;1.50;;;11.90;92.90;;;;;;5033950;28;20040;-44
2023/11/29 07:41:34;;;;;;;1.40;1.23;;;11.90;92.90;;;;;;5033951;28;20025;-45
2023/11/29 07:44:00;;;;;;;1.58;1.23;;;12.00;92.90;;;;;;5033950;28;20025;-41
2023/11/29 07:46:26;;;;;;;1.40;1.15;;;12.00;92.80;;;;;;5033734;28;20079;-44
2023/11/29 07:48:51;;;;;;;1.73;1.23;;;12.00;92.80;;;;;;5033322;28;20032;-45
2023/11/29 07:51:17;;;;;;;1.42;1.10;;;12.10;92.80;;;;;;5034649;28;20048;-45
2023/11/29 07:53:44;;;;;;;1.80;1.30;;;12.10;92.70;;;;;;5034222;28;20056;-45
2023/11/29 07:56:10;;;;;;;1.13;1.02;;;12.10;92.70;;;;;;5035088;28;20056;-45
2023/11/29 07:58:35;;;;;;;2.28;1.40;;;12.10;92.60;;;;;;5033870;28;20411;-45
2023/11/29 08:01:01;;;;;;;1.40;1.20;;;12.20;92.60;;;;;;5034073;28;20021;-45
2023/11/29 08:03:27;;;;;;;1.23;1.08;;;12.20;92.60;;;;;;5034388;28;20055;-45
2023/11/29 08:05:52;;;;;;;2.08;1.40;;;12.20;92.50;;;;;;5034228;28;20021;-45
2023/11/29 08:08:18;;;;;;;1.40;1.20;;;12.20;92.50;;;;;;5033340;28;20025;-44
2023/11/29 08:10:46;;;;;;;1.52;1.17;;;12.20;92.50;;;;;;5033645;28;20029;-45
2023/11/29 08:13:12;;;;;;;1.23;1.13;;;12.20;92.50;;;;;;5034014;28;20037;-45
2023/11/29 08:15:38;;;;;;;2.72;1.30;;;12.20;92.40;;;;;;5032954;28;20030;-44
2023/11/29 08:18:04;;;;;;;1.55;1.13;;;12.20;92.50;;;;;;5033660;28;20022;-45
2023/11/29 08:20:29;;;;;;;1.90;1.50;;;12.20;92.40;;;;;;5033257;28;20033;-43
2023/11/29 08:22:55;;;;;;;1.45;1.00;;;12.20;92.50;;;;;;5033697;28;20101;-45
2023/11/29 08:25:23;;;;;;;4.90;1.60;;;12.20;92.50;;;;;;5033949;28;20025;-46
2023/11/29 08:27:50;;;;;;;2.42;1.80;;;12.30;91.90;;;;;;5033236;28;20029;-47
2023/11/29 08:30:16;;;;;;;2.17;1.48;;;12.30;91.10;;;;;;5033003;28;20052;-47
2023/11/29 08:32:42;;;;;;;1.98;1.70;;;12.20;90.90;;;;;;5033037;28;20061;-46
2023/11/29 08:35:09;;;;;;;2.40;1.63;;;12.20;90.90;;;;;;5033000;28;20104;-45
2023/11/29 08:37:34;;;;;;;1.80;1.58;;;12.20;90.90;;;;;;5032851;28;20025;-45
2023/11/29 08:40:00;;;;;;;2.28;1.52;;;12.20;91.00;;;;;;5032767;28;20040;-45
2023/11/29 08:42:26;;;;;;;2.03;1.52;;;12.20;91.00;;;;;;5033213;28;20045;-46
2023/11/29 08:44:51;;;;;;;1.88;1.40;;;12.20;91.10;;;;;;5033011;28;20040;-46
2023/11/29 08:47:17;;;;;;;2.70;1.60;;;12.20;91.10;;;;;;5032407;28;20116;-45
2023/11/29 08:49:43;;;;;;;1.63;1.05;;;12.30;91.20;;;;;;5032720;28;20411;-46
2023/11/29 08:52:09;;;;;;;1.33;1.20;;;12.30;91.30;;;;;;5032692;28;20041;-45
2023/11/29 08:54:34;;;;;;;2.30;1.30;;;12.30;91.30;;;;;;5032600;28;20021;-45
2023/11/29 08:57:00;;;;;;;1.88;1.67;;;12.30;91.30;;;;;;5032319;28;20022;-45
2023/11/29 08:59:25;;;;;;;1.88;1.00;;;12.30;91.40;;;;;;5032415;28;20033;-45
2023/11/29 09:01:52;;;;;;;1.92;1.30;;;12.40;91.40;;;;;;5032591;28;20052;-45
2023/11/29 09:04:17;;;;;;;1.52;1.20;;;12.40;91.40;;;;;;5032453;28;20056;-45
2023/11/29 09:06:43;;;;;;;1.40;1.20;;;12.40;91.40;;;;;;5032486;28;20061;-46
2023/11/29 09:09:09;;;;;;;3.55;1.35;;;12.40;91.40;;;;;;5011053;28;20048;-44
2023/11/29 09:11:35;;;;;;;1.38;1.20;;;12.50;91.50;;;;;;5033649;28;20021;-45
2023/11/29 09:14:00;;;;;;;1.33;1.08;;;12.50;91.50;;;;;;5034326;28;20454;-46
2023/11/29 09:16:26;;;;;;;1.90;1.10;;;12.50;91.50;;;;;;5032080;28;20087;-45
2023/11/29 09:18:52;;;;;;;1.30;1.08;;;12.50;91.50;;;;;;5031960;28;20041;-45
2023/11/29 09:21:17;;;;;;;1.35;1.10;;;12.60;91.50;;;;;;5032167;28;20017;-47
2023/11/29 09:23:43;;;;;;;1.02;0.88;;;12.70;91.50;;;;;;5032363;28;20093;-45
2023/11/29 09:26:09;;;;;;;1.50;0.95;;;12.70;91.60;;;;;;5032725;28;20478;-45
2023/11/29 09:28:35;;;;;;;1.73;1.10;;;12.80;91.60;;;;;;5031881;28;20434;-45
2023/11/29 09:31:03;;;;;;;1.30;1.00;;;12.80;91.60;;;;;;5032328;28;20033;-46
2023/11/29 09:33:29;;;;;;;1.25;0.77;;;12.90;91.70;;;;;;5032882;28;20029;-45
2023/11/29 09:35:55;;;;;;;1.33;0.70;;;12.90;91.60;;;;;;5031827;28;20018;-46
2023/11/29 09:38:21;;;;;;;2.42;0.90;;;13.00;91.60;;;;;;5031724;28;20037;-46
2023/11/29 09:40:47;;;;;;;1.00;0.80;;;13.10;91.60;;;;;;5032465;28;20491;-46
2023/11/29 09:43:13;;;;;;;1.27;1.08;;;13.10;91.60;;;;;;5031701;28;20112;-45
2023/11/29 09:45:39;;;;;;;1.00;0.80;;;13.20;91.50;;;;;;5031615;28;20109;-46
2023/11/29 09:48:05;;;;;;;0.98;0.88;;;13.20;91.50;;;;;;5031670;28;20039;-46
2023/11/29 09:50:32;;;;;;;0.60;0.60;;;13.30;91.50;;;;;;5031645;28;20029;-46
2023/11/29 09:52:58;;;;;;;1.05;0.90;;;13.30;91.40;;;;;;5031622;28;20480;-47
2023/11/29 09:55:25;;;;;;;1.30;1.10;;;13.40;91.40;;;;;;5031408;28;20060;-45
2023/11/29 09:57:51;;;;;;;2.25;1.17;;;13.50;90.80;;;;;;5031416;28;20025;-45
2023/11/29 10:00:17;;;;;;;1.73;1.23;;;13.50;90.00;;;;;;5031399;28;20079;-45
2023/11/29 10:02:43;;;;;;;1.50;1.30;;;13.50;89.60;;;;;;5031441;28;20029;-45
2023/11/29 10:05:10;;;;;;;2.40;1.27;;;13.50;89.50;;;;;;5031458;28;20033;-45
2023/11/29 10:07:36;;;;;;;1.13;0.98;;;13.50;89.60;;;;;;5031222;28;20021;-45
2023/11/29 10:10:05;;;;;;;1.60;1.13;;;13.50;89.60;;;;;;5031164;28;20060;-45
2023/11/29 10:12:32;;;;;;;1.65;1.00;;;13.60;89.50;;;;;;5031368;28;20037;-45
2023/11/29 10:14:57;;;;;;;1.00;0.90;;;13.60;89.60;;;;;;5031318;28;20071;-45
2023/11/29 10:17:24;;;;;;;1.13;0.90;;;13.60;89.60;;;;;;5031301;28;20025;-43
2023/11/29 10:19:54;;;;;;;2.20;1.00;;;13.70;89.60;;;;;;5031255;28;20024;-45
2023/11/29 10:22:20;;;;;;;1.77;0.70;;;13.70;89.60;;;;;;5031202;28;20502;-45
2023/11/29 10:24:45;;;;;;;1.38;1.00;;;13.70;89.60;;;;;;5031109;28;20029;-45
2023/11/29 10:27:11;;;;;;;1.73;0.88;;;13.70;89.50;;;;;;5031020;28;20033;-45
2023/11/29 10:29:37;;;;;;;1.35;0.90;;;13.70;89.50;;;;;;5031010;28;20470;-42
2023/11/29 10:32:04;;;;;;;1.15;0.93;;;13.80;89.50;;;;;;5031154;28;20119;-45
2023/11/29 10:34:33;;;;;;;0.85;0.77;;;13.80;89.50;;;;;;5031145;28;20033;-45
2023/11/29 10:37:02;;;;;;;1.63;1.00;;;13.80;89.50;;;;;;5030976;28;20053;-45
2023/11/29 10:39:33;;;;;;;1.02;0.88;;;13.90;89.50;;;;;;5032242;28;20484;-45
2023/11/29 10:42:02;;;;;;;0.98;0.90;;;13.90;90.10;;;;;;5035134;28;20033;-45
2023/11/29 10:44:36;;;;;;;0.90;0.73;;;13.90;89.50;;;;;;5035014;28;20029;-44
2023/11/29 10:47:08;;;;;;;2.10;1.10;;;13.90;89.50;;;;;;5035032;28;20076;-45
2023/11/29 10:49:47;;;;;;;1.45;0.85;;;14.00;89.50;;;;;;5035497;28;20334;-43
2023/11/29 10:52:13;;;;;;;1.23;0.73;;;14.00;89.50;;;;;;5034959;28;20039;-45
2023/11/29 10:54:40;;;;;;;1.70;0.68;;;14.00;89.50;;;;;;5036624;28;20475;-45
2023/11/29 10:57:06;;;;;;;0.90;0.65;;;14.00;89.40;;;;;;5033979;28;20558;-45
2023/11/29 10:59:34;;;;;;;1.00;0.90;;;14.10;89.50;;;;;;5034741;28;20059;-45
2023/11/29 11:02:00;;;;;;;2.03;0.70;;;14.10;89.30;;;;;;5034662;28;20029;-45
2023/11/29 11:04:33;;;;;;;0.95;0.70;;;14.10;89.20;;;;;;5034679;28;20045;-45
2023/11/29 11:07:02;;;;;;;2.50;0.90;;;14.20;89.20;;;;;;5034551;28;20029;-45
2023/11/29 11:09:31;;;;;;;1.63;0.80;;;14.20;89.60;;;;;;5034489;28;20021;-45
2023/11/29 11:11:58;;;;;;;0.90;0.65;;;14.20;89.10;;;;;;5034627;28;20024;-45
2023/11/29 11:14:48;;;;;;;0.82;0.60;;;14.30;89.10;;;;;;5034536;28;20041;-45
2023/11/29 11:17:18;;;;;;;0.63;0.55;;;14.30;89.20;;;;;;5034428;28;20022;-45
2023/11/29 11:19:45;;;;;;;1.65;0.80;;;14.30;89.30;;;;;;5034336;28;20029;-45
2023/11/29 11:22:24;;;;;;;1.05;0.70;;;14.40;89.40;;;;;;5034902;28;20470;-45
2023/11/29 11:25:05;;;;;;;0.70;0.47;;;14.40;89.50;;;;;;5034295;28;20383;-45
2023/11/29 11:27:34;;;;;;;0.73;0.40;;;14.40;89.60;;;;;;5034203;28;20040;-45
2023/11/29 11:30:14;;;;;;;0.60;0.50;;;14.50;89.60;;;;;;5034598;28;20072;-45
2023/11/29 11:32:40;;;;;;;1.63;0.90;;;14.60;89.70;;;;;;5034252;28;20475;-45
2023/11/29 11:35:18;;;;;;;1.27;0.60;;;14.60;89.70;;;;;;5034576;28;20067;-45
2023/11/29 11:37:46;;;;;;;1.02;0.68;;;14.70;89.60;;;;;;5033973;28;20507;-45
2023/11/29 11:40:13;;;;;;;0.77;0.70;;;14.70;89.60;;;;;;5033906;28;20100;-45
2023/11/29 11:42:42;;;;;;;1.05;0.68;;;14.80;89.50;;;;;;5034099;28;20384;-45
2023/11/29 11:45:09;;;;;;;1.40;0.50;;;14.90;89.40;;;;;;5034151;28;20025;-45
2023/11/29 11:47:38;;;;;;;0.50;0.45;;;14.90;89.20;;;;;;5033482;28;20053;-43
2023/11/29 11:50:04;;;;;;;0.52;0.38;;;15.00;89.00;;;;;;5033103;28;20025;-44
2023/11/29 11:52:31;;;;;;;2.75;0.57;;;15.10;88.90;;;;;;5034267;28;20025;-45
2023/11/29 11:55:03;;;;;;;0.57;0.47;;;15.10;88.70;;;;;;5034254;28;20025;-43
2023/11/29 11:57:30;;;;;;;0.90;0.57;;;15.20;88.50;;;;;;5034885;28;20021;-43
2023/11/29 11:59:57;;;;;;;1.00;0.60;;;15.20;88.30;;;;;;5034247;28;20060;-42
2023/11/29 12:02:23;;;;;;;0.82;0.50;;;15.30;88.10;;;;;;5033816;28;20048;-46
2023/11/29 12:04:48;;;;;;;0.80;0.60;;;15.30;87.90;;;;;;5033888;28;20472;-45
2023/11/29 12:07:15;;;;;;;0.60;0.40;;;15.40;87.80;;;;;;5033522;28;20096;-45
2023/11/29 12:09:41;;;;;;;0.77;0.47;;;15.40;87.50;;;;;;5033945;28;20060;-45
2023/11/29 12:12:11;;;;;;;1.00;0.50;;;15.50;87.40;;;;;;5033432;28;20076;-45
2023/11/29 12:14:44;;;;;;;0.40;0.40;;;15.50;87.10;;;;;;5033385;28;20101;-44
2023/11/29 12:17:11;;;;;;;0.90;0.57;;;15.60;87.00;;;;;;5033489;28;20506;-44
2023/11/29 12:19:41;;;;;;;0.80;0.40;;;15.60;86.90;;;;;;5033457;28;20032;-45
2023/11/29 12:22:07;;;;;;;0.70;0.50;;;15.70;86.80;;;;;;5033176;28;20017;-45
2023/11/29 12:24:39;;;;;;;0.77;0.50;;;15.70;86.60;;;;;;5034283;28;20022;-45
2023/11/29 12:27:09;;;;;;;1.38;0.60;;;15.70;86.50;;;;;;5033776;28;20034;-45
2023/11/29 12:29:41;;;;;;;0.85;0.60;;;15.70;86.30;;;;;;5033273;28;20565;-45
2023/11/29 12:32:08;;;;;;;0.52;0.40;;;15.70;86.30;;;;;;5033095;28;20021;-45
2023/11/29 12:34:34;;;;;;;0.70;0.50;;;15.70;86.10;;;;;;5032886;28;20104;-45
2023/11/29 12:37:01;;;;;;;0.50;0.40;;;15.70;86.10;;;;;;5032893;28;20056;-45
2023/11/29 12:39:35;;;;;;;0.68;0.60;;;15.80;86.00;;;;;;5032700;28;20029;-45
2023/11/29 12:42:05;;;;;;;0.50;0.50;;;15.70;85.80;;;;;;5033515;28;20052;-45
2023/11/29 12:44:33;;;;;;;0.77;0.55;;;15.70;85.80;;;;;;5033735;28;20099;-45